Time;durP1;ratioP1;P1;durP2;ratioP2;P2;SDS_P1;SDS_P2;PMS_P1;PMS_P2;Temp;Humidity;BMP_temperature;BMP_pressure;BME280_temperature;BME280_humidity;BME280_pressure;Samples;Min_cycle;Max_cycle;Signal;HPM_P1;HPM_P2
2023/10/20 00:01:09;;;;;;;2.17;1.97;;;;;;;14.19;85.14;97577.75;5093319;28;20394;-71
2023/10/20 00:03:38;;;;;;;3.03;2.17;;;;;;;14.19;85.42;97583.72;5094083;28;20048;-73
2023/10/20 00:06:08;;;;;;;1.15;1.08;;;;;;;14.18;85.39;97574.38;5093323;28;20051;-72
2023/10/20 00:08:37;;;;;;;2.08;1.63;;;;;;;14.19;85.41;97582.91;5093263;28;20098;-72
2023/10/20 00:11:07;;;;;;;2.37;2.03;;;;;;;14.19;85.67;97568.34;5093038;28;20135;-73
2023/10/20 00:13:36;;;;;;;3.25;2.92;;;;;;;14.19;85.62;97562.38;5093091;28;20276;-72
2023/10/20 00:16:06;;;;;;;1.08;0.98;;;;;;;14.21;85.49;97560.56;5093173;28;20048;-72
2023/10/20 00:18:37;;;;;;;3.53;2.20;;;;;;;14.21;85.52;97558.81;5093714;28;20051;-72
2023/10/20 00:21:06;;;;;;;7.80;2.38;;;;;;;14.21;85.21;97546.00;5093248;28;20130;-73
2023/10/20 00:23:35;;;;;;;5.30;2.07;;;;;;;14.20;85.62;97539.22;5091849;28;20043;-72
2023/10/20 00:26:04;;;;;;;2.25;2.05;;;;;;;14.24;85.88;97543.28;5093292;28;20081;-72
2023/10/20 00:28:32;;;;;;;1.63;1.23;;;;;;;14.22;85.88;97531.44;5094732;28;20397;-71
2023/10/20 00:31:02;;;;;;;2.78;2.58;;;;;;;14.21;85.48;97517.78;5097005;28;20048;-72
2023/10/20 00:33:31;;;;;;;2.33;1.90;;;;;;;14.21;85.38;97525.47;5097002;28;20040;-73
2023/10/20 00:36:01;;;;;;;2.45;2.22;;;;;;;14.20;85.58;97518.72;5112300;28;20510;-73
2023/10/20 00:38:31;;;;;;;1.98;1.77;;;;;;;14.19;85.75;97511.91;5096827;28;20425;-71
2023/10/20 00:41:00;;;;;;;9.32;1.67;;;;;;;14.17;85.75;97523.97;5096766;28;20448;-71
2023/10/20 00:43:36;;;;;;;3.78;2.00;;;;;;;14.19;85.78;97511.91;5112533;28;20045;-73
2023/10/20 00:46:06;;;;;;;2.10;1.75;;;;;;;14.18;86.02;97509.44;5096386;28;20055;-72
2023/10/20 00:48:36;;;;;;;2.47;1.90;;;;;;;14.19;86.11;97498.25;5095457;28;20433;-73
2023/10/20 00:51:08;;;;;;;2.22;1.60;;;;;;;14.18;86.22;97489.72;5095547;28;20074;-72
2023/10/20 00:53:38;;;;;;;3.35;0.88;;;;;;;14.17;86.09;97488.06;5096272;28;20047;-71
2023/10/20 00:56:07;;;;;;;1.38;1.27;;;;;;;14.16;86.18;97491.53;5096475;28;20502;-72
2023/10/20 00:58:37;;;;;;;3.30;2.58;;;;;;;14.19;86.08;97491.38;5095273;28;20486;-71
2023/10/20 01:01:06;;;;;;;2.05;1.75;;;;;;;14.19;86.41;97480.28;5096370;28;20044;-73
2023/10/20 01:03:35;;;;;;;0.93;0.75;;;;;;;14.20;85.92;97487.91;5096065;28;20118;-72
2023/10/20 01:06:05;;;;;;;3.15;1.70;;;;;;;14.21;86.21;97479.28;5095982;28;20059;-72
2023/10/20 01:08:36;;;;;;;3.65;1.92;;;;;;;14.21;85.88;97483.59;5094123;28;20047;-72
2023/10/20 01:11:05;;;;;;;2.70;1.95;;;;;;;14.20;86.45;97481.94;5096012;28;20048;-73
2023/10/20 01:13:34;;;;;;;3.65;1.38;;;;;;;14.20;86.30;97477.66;5111958;28;20431;-72
2023/10/20 01:16:04;;;;;;;2.53;2.08;;;;;;;14.19;86.66;97475.97;5095892;28;20122;-72
2023/10/20 01:18:33;;;;;;;1.05;0.95;;;;;;;14.21;86.21;97463.91;5095796;28;20051;-72
2023/10/20 01:21:02;;;;;;;2.08;1.88;;;;;;;14.19;86.44;97460.59;5095728;28;20113;-71
2023/10/20 01:23:31;;;;;;;1.15;0.90;;;;;;;14.20;86.50;97462.25;5111791;28;20109;-72
2023/10/20 01:26:02;;;;;;;2.53;1.27;;;;;;;14.23;86.44;97456.97;5095965;28;20105;-73
2023/10/20 01:28:31;;;;;;;3.65;1.23;;;;;;;14.24;86.38;97447.53;5095543;28;20050;-71
2023/10/20 01:31:00;;;;;;;1.30;1.20;;;;;;;14.25;86.59;97462.88;5111331;28;20094;-71
2023/10/20 01:33:29;;;;;;;1.50;1.40;;;;;;;14.26;86.61;97464.50;5111323;28;20044;-73
2023/10/20 01:35:58;;;;;;;1.20;1.10;;;;;;;14.28;87.11;97460.13;5095741;28;20063;-71
2023/10/20 01:38:26;;;;;;;2.92;1.55;;;;;;;14.28;86.98;97457.56;5094909;28;20048;-72
2023/10/20 01:40:55;;;;;;;1.58;1.10;;;;;;;14.30;87.02;97468.59;5111066;28;20048;-72
2023/10/20 01:43:26;;;;;;;11.95;2.88;;;;;;;14.31;86.82;97462.56;5111075;28;20094;-71
2023/10/20 01:45:55;;;;;;;3.13;2.80;;;;;;;14.33;87.00;97450.47;5111076;28;20072;-71
2023/10/20 01:48:24;;;;;;;0.73;0.70;;;;;;;14.33;87.26;97442.78;5111061;28;20034;-72
2023/10/20 01:50:53;;;;;;;6.70;2.95;;;;;;;14.34;87.42;97439.31;5095127;28;20040;-72
2023/10/20 01:53:22;;;;;;;1.30;1.15;;;;;;;14.37;87.21;97426.31;5093874;28;20429;-72
2023/10/20 01:55:51;;;;;;;4.00;3.20;;;;;;;14.47;87.40;97430.06;5111168;28;20081;-72
2023/10/20 01:58:21;;;;;;;1.08;0.98;;;;;;;14.90;88.29;97423.47;5094098;28;20044;-73
2023/10/20 02:00:52;;;;;;;;;;;;;;;15.41;88.25;97422.34;5111178;28;20043;-71
2023/10/20 02:03:24;;;;;;;0.77;0.77;;;;;;;15.71;88.08;97412.94;5094980;28;20366;-72
2023/10/20 02:05:54;;;;;;;3.15;1.50;;;;;;;15.87;88.26;97412.84;5095149;28;20068;-72
2023/10/20 02:08:23;;;;;;;3.57;2.30;;;;;;;16.05;87.92;97404.88;5110739;28;20078;-72
2023/10/20 02:10:52;;;;;;;2.33;1.85;;;;;;;16.17;87.54;97405.09;5110540;28;20032;-73
2023/10/20 02:13:20;;;;;;;1.30;1.17;;;;;;;16.24;87.07;97406.38;5094723;28;20043;-70
2023/10/20 02:15:51;;;;;;;2.63;1.38;;;;;;;16.33;86.63;97410.97;5094688;28;20043;-71
2023/10/20 02:18:20;;;;;;;2.15;1.40;;;;;;;16.39;86.00;97413.16;5094599;28;20073;-71
2023/10/20 02:21:03;;;;;;;4.70;2.85;;;;;;;16.49;85.56;97409.09;5110373;28;20109;-69
2023/10/20 02:23:34;;;;;;;0.57;0.52;;;;;;;16.50;85.24;97403.06;5093715;28;20075;-69
2023/10/20 02:26:05;;;;;;;1.20;1.10;;;;;;;16.55;84.87;97401.91;5094880;28;20063;-73
2023/10/20 02:28:34;;;;;;;0.50;0.50;;;;;;;16.61;84.33;97396.34;5094626;28;20083;-69
2023/10/20 02:31:13;;;;;;;1.17;1.08;;;;;;;16.68;84.26;97402.78;5094579;28;20048;-74
2023/10/20 02:33:44;;;;;;;3.67;1.45;;;;;;;16.79;84.01;97398.72;5094935;28;20040;-75
2023/10/20 02:36:17;;;;;;;13.27;1.42;;;;;;;16.80;83.86;97390.88;5110460;28;20115;-73
2023/10/20 02:38:51;;;;;;;2.65;1.85;;;;;;;16.87;83.73;97406.81;5093339;28;20142;-73
2023/10/20 02:41:21;;;;;;;1.83;1.70;;;;;;;16.99;83.69;97391.38;5094259;28;20044;-70
2023/10/20 02:43:50;;;;;;;1.70;1.25;;;;;;;17.05;83.33;97388.44;5093065;28;20117;-74
2023/10/20 02:46:20;;;;;;;0.53;0.53;;;;;;;17.06;83.00;97384.91;5094330;28;20032;-70
2023/10/20 02:48:49;;;;;;;0.80;0.80;;;;;;;17.08;82.72;97374.53;5094028;28;20292;-72
2023/10/20 02:51:18;;;;;;;1.80;1.20;;;;;;;17.06;82.37;97372.03;5109367;28;20036;-70
2023/10/20 02:53:47;;;;;;;1.10;1.00;;;;;;;17.09;82.44;97371.84;5093979;28;20040;-70
2023/10/20 02:56:18;;;;;;;9.85;2.28;;;;;;;17.08;82.22;97374.53;5109735;28;20044;-72
2023/10/20 02:58:48;;;;;;;1.10;1.00;;;;;;;17.08;82.04;97366.78;5094018;28;20052;-71
2023/10/20 03:01:18;;;;;;;1.27;1.17;;;;;;;17.08;82.01;97365.06;5093900;28;20046;-71
2023/10/20 03:03:48;;;;;;;1.52;1.15;;;;;;;17.06;81.95;97356.56;5093977;28;20040;-71
2023/10/20 03:06:19;;;;;;;1.08;1.08;;;;;;;17.08;82.13;97359.91;5093938;28;20077;-69
2023/10/20 03:08:48;;;;;;;0.82;0.82;;;;;;;17.09;82.10;97356.38;5094107;28;20036;-73
2023/10/20 03:11:17;;;;;;;16.60;2.55;;;;;;;17.10;82.09;97360.63;5093709;28;20044;-72
2023/10/20 03:13:47;;;;;;;1.40;1.30;;;;;;;17.11;82.04;97354.53;5093818;28;20040;-72
2023/10/20 03:16:15;;;;;;;1.27;1.20;;;;;;;17.12;81.90;97345.88;5093693;28;20059;-73
2023/10/20 03:18:45;;;;;;;0.93;0.85;;;;;;;17.10;82.00;97347.72;5094056;28;20062;-72
2023/10/20 03:21:15;;;;;;;1.57;0.97;;;;;;;17.11;82.07;97345.97;5093422;28;20050;-68
2023/10/20 03:23:44;;;;;;;0.90;0.90;;;;;;;17.16;82.24;97355.06;5093732;28;20326;-72
2023/10/20 03:26:13;;;;;;;1.23;1.13;;;;;;;17.14;81.86;97359.50;5093670;28;20490;-73
2023/10/20 03:28:43;;;;;;;0.50;0.50;;;;;;;17.12;81.89;97358.78;5093798;28;20028;-72
2023/10/20 03:31:12;;;;;;;1.58;1.48;;;;;;;17.11;82.15;97354.53;5094145;28;20082;-71
2023/10/20 03:33:41;;;;;;;2.30;1.67;;;;;;;17.03;82.02;97354.22;5092613;28;20044;-72
2023/10/20 03:36:12;;;;;;;1.75;1.40;;;;;;;17.02;82.06;97343.97;5092551;28;20457;-72
2023/10/20 03:38:43;;;;;;;3.45;1.17;;;;;;;17.04;82.34;97337.81;5093908;28;20052;-73
2023/10/20 03:41:14;;;;;;;3.17;1.95;;;;;;;17.06;82.26;97330.78;5109379;28;20508;-71
2023/10/20 03:43:45;;;;;;;5.22;2.08;;;;;;;17.07;82.34;97327.31;5093939;28;20551;-71
2023/10/20 03:46:16;;;;;;;0.77;0.77;;;;;;;17.10;82.41;97337.44;5093370;28;20040;-73
2023/10/20 03:48:45;;;;;;;0.50;0.50;;;;;;;17.16;82.22;97329.28;5093470;28;20066;-73
2023/10/20 03:51:14;;;;;;;1.20;1.10;;;;;;;17.17;82.27;97336.09;5094139;28;20439;-72
2023/10/20 03:53:50;;;;;;;0.88;0.85;;;;;;;17.16;82.06;97328.44;5093979;28;20061;-72
2023/10/20 03:56:22;;;;;;;2.22;1.27;;;;;;;17.17;82.35;97328.38;5093376;28;20052;-72
2023/10/20 03:58:51;;;;;;;0.88;0.65;;;;;;;17.18;82.13;97329.19;5093415;28;20050;-72
2023/10/20 04:01:21;;;;;;;0.73;0.57;;;;;;;17.16;82.29;97324.13;5093304;28;20097;-72
2023/10/20 04:03:50;;;;;;;1.15;1.05;;;;;;;17.17;82.32;97333.53;5095935;28;20052;-73
2023/10/20 04:06:21;;;;;;;1.52;1.30;;;;;;;17.18;82.14;97330.00;5097833;28;20044;-73
2023/10/20 04:08:52;;;;;;;1.25;1.15;;;;;;;17.22;82.31;97321.16;5096542;28;20062;-71
2023/10/20 04:11:22;;;;;;;0.60;0.60;;;;;;;17.18;82.07;97326.63;5097233;28;20124;-72
2023/10/20 04:13:52;;;;;;;3.03;1.38;;;;;;;17.13;81.95;97326.91;5097098;28;20105;-72
2023/10/20 04:16:23;;;;;;;0.85;0.85;;;;;;;17.11;81.96;97328.75;5095994;28;20131;-72
2023/10/20 04:18:52;;;;;;;2.35;1.88;;;;;;;17.11;81.89;97339.06;5097242;28;20551;-72
2023/10/20 04:21:22;;;;;;;0.80;0.80;;;;;;;17.13;82.22;97342.34;5096681;28;20043;-71
2023/10/20 04:23:52;;;;;;;0.75;0.75;;;;;;;17.20;82.38;97335.06;5097718;28;20470;-72
2023/10/20 04:26:21;;;;;;;4.25;1.80;;;;;;;17.29;81.63;97342.22;5097090;28;20490;-72
2023/10/20 04:29:04;;;;;;;7.30;1.95;;;;;;;17.29;81.47;97345.63;5096732;28;20046;-72
2023/10/20 04:45:22;;;;;;;5.82;1.90;;;;;;;17.12;81.40;97314.94;5096792;28;20048;-72
2023/10/20 04:51:08;;;;;;;1.53;0.93;;;;;;;17.17;81.92;97317.22;5091341;28;20044;-74
2023/10/20 04:53:48;;;;;;;1.20;0.82;;;;;;;17.28;81.66;97327.66;5096651;28;20040;-72
2023/10/20 04:58:59;;;;;;;0.70;0.70;;;;;;;17.38;81.41;97316.66;5097101;28;20462;-72
2023/10/20 05:01:30;;;;;;;1.17;1.08;;;;;;;17.44;81.26;97316.22;5096158;28;20047;-73
2023/10/20 05:04:09;;;;;;;1.08;0.93;;;;;;;17.54;81.22;97310.53;5096220;28;20052;-71
2023/10/20 05:06:44;;;;;;;0.77;0.75;;;;;;;17.54;81.02;97315.69;5094322;28;20068;-72
2023/10/20 05:09:17;;;;;;;0.77;0.77;;;;;;;17.50;80.92;97309.84;5096263;28;20036;-72
2023/10/20 05:11:49;;;;;;;0.60;0.60;;;;;;;17.39;80.91;97312.31;5096297;28;20044;-71
2023/10/20 05:14:18;;;;;;;1.08;1.00;;;;;;;17.28;81.03;97305.28;5095744;28;20048;-72
2023/10/20 05:16:47;;;;;;;0.52;0.52;;;;;;;17.29;81.24;97325.00;5096040;28;20044;-73
2023/10/20 05:19:16;;;;;;;0.77;0.77;;;;;;;17.34;81.13;97325.53;5095783;28;20498;-67
2023/10/20 05:21:45;;;;;;;0.65;0.65;;;;;;;17.41;81.12;97321.63;5095601;28;20543;-72
2023/10/20 05:24:14;;;;;;;0.63;0.63;;;;;;;17.38;80.74;97321.81;5095563;28;20147;-72
2023/10/20 05:26:47;;;;;;;1.50;1.20;;;;;;;17.30;80.89;97334.38;5096477;28;20048;-72
2023/10/20 05:29:17;;;;;;;2.05;1.40;;;;;;;17.21;81.10;97304.03;5095574;28;20067;-72
2023/10/20 05:31:46;;;;;;;1.50;1.33;;;;;;;17.24;81.47;97303.84;5095260;28;20097;-72
2023/10/20 05:34:15;;;;;;;0.60;0.60;;;;;;;17.43;81.56;97303.44;5095693;28;20064;-71
2023/10/20 05:36:44;;;;;;;1.60;1.40;;;;;;;17.68;81.38;97292.34;5095799;28;20036;-66
2023/10/20 05:39:14;;;;;;;10.33;1.50;;;;;;;17.77;80.83;97313.19;5095788;28;20040;-71
2023/10/20 05:41:44;;;;;;;0.60;0.60;;;;;;;17.79;80.77;97311.34;5095817;28;20093;-73
2023/10/20 05:44:17;;;;;;;3.65;2.60;;;;;;;17.81;80.57;97303.47;5095445;28;20051;-69
2023/10/20 05:46:46;;;;;;;1.27;1.10;;;;;;;17.86;80.19;97319.47;5095398;28;20468;-72
2023/10/20 05:49:15;;;;;;;0.90;0.82;;;;;;;17.89;79.94;97308.97;5095276;28;20105;-71
2023/10/20 05:51:45;;;;;;;5.70;3.40;;;;;;;17.92;79.85;97306.19;5095021;28;20064;-72
2023/10/20 05:54:15;;;;;;;0.60;0.60;;;;;;;17.96;79.68;97305.88;5095444;28;20053;-72
2023/10/20 05:56:44;;;;;;;1.35;1.25;;;;;;;17.99;79.97;97303.06;5095164;28;20501;-72
2023/10/20 05:59:14;;;;;;;0.85;0.82;;;;;;;18.07;79.29;97298.19;5095331;28;20119;-67
2023/10/20 06:01:43;;;;;;;0.80;0.80;;;;;;;18.09;79.08;97288.59;5095585;28;20044;-72
2023/10/20 06:04:12;;;;;;;1.07;0.93;;;;;;;18.18;79.08;97297.47;5095157;28;20051;-71
2023/10/20 06:06:41;;;;;;;0.75;0.75;;;;;;;18.26;78.92;97299.53;5093877;28;20318;-73
2023/10/20 06:09:10;;;;;;;2.43;1.47;;;;;;;18.29;78.59;97300.13;5094002;28;20040;-70
2023/10/20 06:11:39;;;;;;;2.70;1.77;;;;;;;18.27;78.62;97296.00;5094555;28;20521;-74
2023/10/20 06:14:07;;;;;;;1.73;1.33;;;;;;;18.18;78.42;97296.63;5094648;28;20044;-72
2023/10/20 06:16:38;;;;;;;15.75;3.38;;;;;;;18.12;78.55;97282.38;5091264;28;20044;-72
2023/10/20 06:19:07;;;;;;;1.25;1.15;;;;;;;18.15;78.71;97281.34;5092144;28;20061;-76
2023/10/20 06:21:36;;;;;;;0.85;0.55;;;;;;;18.25;78.69;97290.94;5094673;28;20040;-68
2023/10/20 06:24:06;;;;;;;0.80;0.80;;;;;;;18.39;78.51;97295.97;5094445;28;20109;-73
2023/10/20 06:26:38;;;;;;;0.73;0.70;;;;;;;18.48;78.36;97295.34;5092812;28;20044;-73
2023/10/20 06:29:23;;;;;;;1.40;1.30;;;;;;;18.55;78.23;97300.88;5092464;28;20047;-73
2023/10/20 06:31:57;;;;;;;2.45;1.50;;;;;;;18.62;77.73;97290.00;5086168;28;20048;-70
2023/10/20 06:34:27;;;;;;;0.75;0.75;;;;;;;18.62;77.53;97287.44;5094400;28;20135;-65
2023/10/20 06:37:06;;;;;;;1.85;1.42;;;;;;;18.66;77.57;97288.88;5094549;28;20048;-69
2023/10/20 06:39:37;;;;;;;1.15;1.05;;;;;;;18.67;77.47;97280.19;5093408;28;20040;-72
2023/10/20 06:42:06;;;;;;;1.08;0.98;;;;;;;18.66;77.31;97280.31;5087759;28;20387;-72
2023/10/20 06:44:35;;;;;;;3.50;2.63;;;;;;;18.71;77.39;97266.09;5091326;28;20040;-74
2023/10/20 06:47:05;;;;;;;23.90;2.17;;;;;;;18.81;77.02;97275.78;5090724;28;20418;-69
2023/10/20 06:49:34;;;;;;;0.55;0.55;;;;;;;18.82;76.80;97277.44;5094403;28;20040;-72
2023/10/20 06:52:03;;;;;;;1.00;0.88;;;;;;;18.84;76.83;97270.38;5094079;28;20036;-69
2023/10/20 06:54:33;;;;;;;1.35;1.23;;;;;;;18.91;76.61;97276.78;5092938;28;20067;-72
2023/10/20 06:57:02;;;;;;;1.10;1.00;;;;;;;18.94;76.49;97276.53;5094273;28;20040;-72
2023/10/20 06:59:31;;;;;;;1.20;0.90;;;;;;;18.92;76.11;97279.25;5094149;28;20048;-71
2023/10/20 07:02:01;;;;;;;0.73;0.60;;;;;;;18.85;76.35;97279.78;5094478;28;20150;-70
2023/10/20 07:04:31;;;;;;;2.30;1.50;;;;;;;18.90;76.29;97281.13;5093233;28;20307;-69
2023/10/20 07:07:02;;;;;;;0.70;0.70;;;;;;;18.97;76.29;97281.50;5094183;28;20397;-70
2023/10/20 07:09:31;;;;;;;0.90;0.85;;;;;;;18.93;75.98;97269.75;5094276;28;20125;-69
2023/10/20 07:12:01;;;;;;;0.73;0.73;;;;;;;18.85;75.99;97272.03;5093870;28;20531;-70
2023/10/20 07:14:30;;;;;;;2.35;1.23;;;;;;;18.81;76.23;97275.78;5092657;28;20524;-71
2023/10/20 07:17:03;;;;;;;0.93;0.93;;;;;;;18.79;76.34;97267.34;5093854;28;20410;-69
2023/10/20 07:19:34;;;;;;;1.70;1.35;;;;;;;18.85;76.40;97272.88;5093907;28;20059;-67
2023/10/20 07:22:04;;;;;;;2.20;1.98;;;;;;;18.96;76.15;97272.06;5088597;28;20044;-76
2023/10/20 07:24:33;;;;;;;1.20;1.05;;;;;;;19.05;76.06;97263.66;5082910;28;20051;-70
2023/10/20 07:27:03;;;;;;;0.65;0.65;;;;;;;19.11;75.75;97264.03;5092977;28;20047;-71
2023/10/20 07:29:32;;;;;;;0.68;0.68;;;;;;;19.14;75.43;97263.00;5093494;28;20032;-70
2023/10/20 07:32:04;;;;;;;3.90;1.75;;;;;;;19.14;75.73;97265.56;5093398;28;20068;-71
2023/10/20 07:34:35;;;;;;;2.10;1.60;;;;;;;19.19;75.54;97260.88;5084868;28;20111;-72
2023/10/20 07:37:06;;;;;;;4.90;1.88;;;;;;;19.19;75.02;97255.72;5092790;28;20043;-68
2023/10/20 07:39:35;;;;;;;0.63;0.60;;;;;;;19.16;75.14;97259.34;5096968;28;20119;-70
2023/10/20 07:42:04;;;;;;;2.25;1.88;;;;;;;19.13;75.18;97243.22;5097955;28;20071;-71
2023/10/20 07:44:33;;;;;;;0.50;0.50;;;;;;;19.17;75.29;97252.44;5097832;28;20039;-68
2023/10/20 07:47:03;;;;;;;1.55;1.38;;;;;;;19.27;75.03;97243.84;5097771;28;20474;-68
2023/10/20 07:49:31;;;;;;;0.63;0.63;;;;;;;19.40;74.78;97251.56;5096355;28;20040;-71
2023/10/20 07:52:03;;;;;;;1.90;1.70;;;;;;;19.56;74.40;97246.88;5097113;28;20059;-71
2023/10/20 07:54:32;;;;;;;1.35;1.25;;;;;;;19.67;73.75;97236.53;5095428;28;20078;-68
2023/10/20 07:57:01;;;;;;;2.10;1.23;;;;;;;19.70;73.56;97232.91;5094507;28;20114;-70
2023/10/20 07:59:30;;;;;;;7.13;1.83;;;;;;;19.73;73.37;97228.28;5094175;28;20051;-68
2023/10/20 08:01:59;;;;;;;1.65;1.33;;;;;;;19.89;72.91;97240.91;5097461;28;20818;-67
2023/10/20 08:04:28;;;;;;;1.90;1.30;;;;;;;19.96;72.88;97253.22;5097546;28;20154;-68
2023/10/20 08:06:59;;;;;;;2.28;2.08;;;;;;;19.95;72.48;97254.19;5097043;28;20490;-71
2023/10/20 08:09:34;;;;;;;1.75;0.90;;;;;;;20.01;72.35;97255.47;5095167;28;20078;-71
2023/10/20 08:12:03;;;;;;;1.38;0.70;;;;;;;20.03;72.29;97254.41;5087825;28;20048;-73
2023/10/20 08:14:33;;;;;;;1.17;1.10;;;;;;;20.00;72.26;97254.66;5090850;28;20047;-70
2023/10/20 08:17:07;;;;;;;2.78;1.25;;;;;;;19.98;72.13;97235.81;5096292;28;20047;-70
2023/10/20 08:19:36;;;;;;;1.13;1.00;;;;;;;19.92;72.10;97236.28;5096061;28;20047;-71
2023/10/20 08:22:05;;;;;;;0.90;0.90;;;;;;;19.94;72.17;97244.75;5095483;28;20404;-67
2023/10/20 08:24:35;;;;;;;0.50;0.50;;;;;;;19.98;72.16;97245.34;5095909;28;20032;-72
2023/10/20 08:27:04;;;;;;;0.50;0.50;;;;;;;19.98;72.06;97241.00;5096629;28;20280;-72
2023/10/20 08:29:33;;;;;;;3.63;1.30;;;;;;;19.98;72.25;97235.81;5094739;28;20123;-72
2023/10/20 08:32:03;;;;;;;1.50;0.80;;;;;;;20.00;71.90;97236.53;5096584;28;20075;-70
2023/10/20 08:34:32;;;;;;;2.85;1.60;;;;;;;20.03;72.14;97238.84;5095751;28;20040;-71
2023/10/20 08:37:02;;;;;;;2.63;0.90;;;;;;;20.01;71.89;97227.78;5095922;28;20383;-69
2023/10/20 08:39:32;;;;;;;0.70;0.70;;;;;;;20.00;71.94;97233.94;5096584;28;20056;-67
2023/10/20 08:42:02;;;;;;;0.70;0.70;;;;;;;20.00;71.90;97233.94;5096922;28;20501;-71
2023/10/20 08:44:32;;;;;;;1.00;0.93;;;;;;;20.01;71.69;97240.75;5095533;28;20051;-67
2023/10/20 08:47:01;;;;;;;1.45;1.10;;;;;;;20.01;71.65;97242.53;5095439;28;20032;-71
2023/10/20 08:49:30;;;;;;;0.90;0.85;;;;;;;20.10;72.01;97238.41;5094223;28;20040;-69
2023/10/20 08:52:04;;;;;;;1.95;1.17;;;;;;;20.21;71.49;97238.38;5096153;28;20071;-67
2023/10/20 08:54:33;;;;;;;1.55;1.45;;;;;;;20.32;71.25;97249.59;5096364;28;20600;-68
2023/10/20 08:57:03;;;;;;;1.23;1.13;;;;;;;20.41;71.10;97232.47;5095117;28;20054;-68
2023/10/20 08:59:35;;;;;;;4.45;1.55;;;;;;;20.50;70.38;97240.34;5096548;28;20370;-69
2023/10/20 09:02:07;;;;;;;5.78;2.30;;;;;;;20.65;70.39;97233.13;5096325;28;20508;-66
2023/10/20 09:04:37;;;;;;;2.03;1.23;;;;;;;20.80;70.25;97231.88;5096643;28;20090;-71
2023/10/20 09:07:13;;;;;;;1.65;1.15;;;;;;;20.84;70.19;97232.44;5095246;28;20052;-70
2023/10/20 09:09:43;;;;;;;0.93;0.90;;;;;;;20.76;70.01;97233.06;5091319;28;20139;-69
2023/10/20 09:12:13;;;;;;;1.58;1.30;;;;;;;20.67;70.03;97231.22;5096071;28;20494;-68
2023/10/20 09:14:42;;;;;;;2.00;1.80;;;;;;;20.62;70.34;97217.81;5096823;28;20040;-70
2023/10/20 09:17:22;;;;;;;1.88;1.50;;;;;;;20.66;70.38;97221.78;5095144;28;20040;-69
2023/10/20 09:19:51;;;;;;;1.15;1.05;;;;;;;20.82;70.16;97218.78;5095734;28;20055;-70
2023/10/20 09:22:29;;;;;;;1.30;1.20;;;;;;;20.84;69.76;97215.13;5095488;28;20052;-69
2023/10/20 09:24:58;;;;;;;1.55;0.95;;;;;;;20.82;70.04;97216.19;5095578;28;20531;-69
2023/10/20 09:27:28;;;;;;;4.60;1.50;;;;;;;20.79;69.96;97212.06;5094061;28;20534;-71
2023/10/20 09:29:58;;;;;;;0.52;0.52;;;;;;;20.71;70.48;97199.72;5095873;28;20040;-70
2023/10/20 09:32:27;;;;;;;1.27;1.17;;;;;;;20.66;70.52;97203.63;5094578;28;20040;-69
2023/10/20 09:34:56;;;;;;;0.90;0.90;;;;;;;20.61;70.74;97198.03;5094391;28;20040;-69
2023/10/20 09:37:30;;;;;;;0.70;0.70;;;;;;;20.63;70.73;97188.34;5094995;28;20032;-70
2023/10/20 09:40:06;;;;;;;1.58;1.48;;;;;;;20.67;70.83;97181.97;5095367;28;20062;-70
2023/10/20 09:42:49;;;;;;;7.88;1.20;;;;;;;20.69;70.59;97193.03;5089397;28;20043;-67
2023/10/20 09:45:25;;;;;;;1.25;0.98;;;;;;;20.85;70.54;97180.44;5094722;28;20048;-68
2023/10/20 09:47:57;;;;;;;2.10;1.30;;;;;;;21.12;69.84;97193.78;5095157;28;20054;-72
2023/10/20 09:50:31;;;;;;;1.05;0.85;;;;;;;21.26;68.99;97190.84;5095757;28;20052;-69
2023/10/20 09:53:01;;;;;;;1.55;1.38;;;;;;;21.32;68.37;97168.78;5093359;28;20036;-70
2023/10/20 09:55:31;;;;;;;1.10;1.00;;;;;;;21.45;67.81;97164.16;5095046;28;20047;-70
2023/10/20 09:58:02;;;;;;;13.45;2.15;;;;;;;21.56;67.57;97171.06;5095336;28;20040;-73
2023/10/20 10:00:32;;;;;;;1.25;1.13;;;;;;;21.70;67.43;97168.09;5094558;28;20048;-68
2023/10/20 10:03:02;;;;;;;1.02;0.93;;;;;;;21.97;66.70;97171.78;5093404;28;20428;-69
2023/10/20 10:05:31;;;;;;;0.68;0.68;;;;;;;22.15;66.36;97164.16;5094964;28;20048;-69
2023/10/20 10:08:04;;;;;;;0.93;0.80;;;;;;;22.21;65.93;97155.81;5095178;28;20048;-68
2023/10/20 10:10:37;;;;;;;3.40;1.65;;;;;;;22.27;65.61;97152.69;5094833;28;20040;-69
2023/10/20 10:13:08;;;;;;;3.67;1.20;;;;;;;22.40;65.65;97142.84;5092097;28;20074;-66
2023/10/20 10:15:41;;;;;;;2.75;0.95;;;;;;;22.62;64.89;97137.41;5086138;28;20048;-69
2023/10/20 10:18:13;;;;;;;1.85;1.20;;;;;;;22.94;64.08;97151.88;5085233;28;20127;-69
2023/10/20 10:20:45;;;;;;;0.57;0.57;;;;;;;23.01;63.82;97148.56;5094527;28;20397;-69
2023/10/20 10:23:16;;;;;;;1.30;1.17;;;;;;;22.86;63.75;97138.75;5093325;28;20524;-72
2023/10/20 10:25:47;;;;;;;1.10;1.02;;;;;;;22.68;63.94;97133.41;5094608;28;20059;-67
2023/10/20 10:28:19;;;;;;;0.68;0.68;;;;;;;22.78;63.77;97130.81;5094828;28;20131;-64
2023/10/20 10:30:52;;;;;;;1.65;1.13;;;;;;;23.04;63.35;97121.44;5094569;28;20044;-67
2023/10/20 10:33:22;;;;;;;1.13;1.02;;;;;;;23.32;62.71;97125.75;5093212;28;20048;-66
2023/10/20 10:36:04;;;;;;;1.02;0.95;;;;;;;23.59;61.90;97132.78;5093862;28;20044;-64
2023/10/20 10:38:42;;;;;;;1.25;0.95;;;;;;;23.78;60.89;97136.09;5094279;28;20048;-68
2023/10/20 10:41:12;;;;;;;0.85;0.85;;;;;;;23.94;60.88;97125.06;5094256;28;20059;-67
2023/10/20 10:43:42;;;;;;;20.88;3.38;;;;;;;24.02;60.14;97116.50;5093112;28;20054;-67
2023/10/20 10:46:11;;;;;;;2.30;1.67;;;;;;;24.13;59.66;97134.56;5094431;28;20040;-68
2023/10/20 10:48:40;;;;;;;;;;;;;;;24.25;59.46;97120.34;5091231;28;20044;-68
2023/10/20 10:51:09;;;;;;;0.83;0.83;;;;;;;24.34;58.31;97122.06;5093344;28;19920;-68
2023/10/20 10:53:40;;;;;;;0.95;0.75;;;;;;;24.40;56.76;97119.66;5093966;28;20285;-69
2023/10/20 10:56:09;;;;;;;3.17;1.80;;;;;;;24.41;56.18;97099.63;5090645;28;20496;-70
2023/10/20 10:58:41;;;;;;;0.65;0.65;;;;;;;24.37;55.88;97114.78;5094622;28;20051;-71
2023/10/20 11:01:10;;;;;;;1.63;1.38;;;;;;;24.33;55.84;97108.19;5093070;28;20064;-70
2023/10/20 11:03:39;;;;;;;0.98;0.80;;;;;;;24.27;55.33;97106.19;5094479;28;20486;-70
2023/10/20 11:06:08;;;;;;;;;;;;;;;24.28;55.00;97109.63;5092384;28;20473;-64
2023/10/20 11:08:40;;;;;;;0.38;0.38;;;;;;;24.21;54.67;97119.81;5094474;28;20354;-71
2023/10/20 11:11:10;;;;;;;1.25;1.15;;;;;;;24.09;54.79;97120.19;5094112;28;20040;-69
2023/10/20 11:13:42;;;;;;;0.60;0.60;;;;;;;24.06;54.74;97123.06;5091275;28;20489;-68
2023/10/20 11:16:14;;;;;;;1.42;0.63;;;;;;;24.07;54.79;97127.34;5093003;28;20052;-67
2023/10/20 11:18:46;;;;;;;3.45;1.73;;;;;;;23.99;54.59;97115.03;5092755;28;20094;-66
2023/10/20 11:21:16;;;;;;;1.70;1.40;;;;;;;23.92;55.11;97119.19;5093419;28;20056;-71
2023/10/20 11:23:50;;;;;;;0.40;0.40;;;;;;;23.88;55.12;97138.66;5091745;28;20052;-71
2023/10/20 11:26:21;;;;;;;1.40;1.27;;;;;;;23.83;55.22;97130.47;5093887;28;20079;-72
2023/10/20 11:28:51;;;;;;;0.82;0.82;;;;;;;23.81;55.23;97107.16;5093687;28;20502;-72
2023/10/20 11:31:20;;;;;;;2.30;1.17;;;;;;;23.82;54.74;97123.63;5093599;28;20070;-72
2023/10/20 11:33:49;;;;;;;0.40;0.40;;;;;;;23.85;54.87;97108.50;5091541;28;20455;-72
2023/10/20 11:36:18;;;;;;;0.65;0.65;;;;;;;23.85;54.88;97108.50;5092455;28;20040;-73
2023/10/20 11:38:47;;;;;;;7.32;1.25;;;;;;;23.87;54.98;97121.41;5093826;28;20040;-69
2023/10/20 11:41:16;;;;;;;2.30;1.40;;;;;;;23.86;54.61;97120.56;5093372;28;20055;-65
2023/10/20 11:43:45;;;;;;;1.23;0.85;;;;;;;23.92;53.94;97119.97;5091379;28;20044;-68
2023/10/20 11:46:15;;;;;;;8.38;1.55;;;;;;;24.04;53.96;97127.59;5092794;28;20079;-69
2023/10/20 11:48:44;;;;;;;0.52;0.52;;;;;;;24.15;53.45;97117.00;5093725;28;20059;-69
2023/10/20 11:51:14;;;;;;;2.13;1.63;;;;;;;24.17;53.45;97120.25;5093385;28;20048;-68
2023/10/20 11:53:43;;;;;;;0.93;0.88;;;;;;;24.18;53.55;97124.53;5107272;28;20044;-69
2023/10/20 11:56:11;;;;;;;0.50;0.50;;;;;;;24.30;53.36;97131.16;5092542;28;20051;-69
2023/10/20 11:58:40;;;;;;;0.85;0.77;;;;;;;24.52;52.78;97117.66;5093462;28;20044;-66
2023/10/20 12:01:09;;;;;;;4.88;1.23;;;;;;;24.69;52.46;97137.66;5093370;28;20122;-66
2023/10/20 12:03:39;;;;;;;1.05;1.00;;;;;;;24.91;51.93;97134.63;5092095;28;20048;-67
2023/10/20 12:06:09;;;;;;;1.13;0.90;;;;;;;24.98;51.28;97127.81;5093328;28;20097;-66
2023/10/20 12:08:38;;;;;;;0.70;0.70;;;;;;;24.94;51.11;97128.28;5093163;28;20048;-66